sensor_id;sensor_type;location;lat;lon;timestamp;P1;durP1;ratioP1;P2;durP2;ratioP2
56752;SDS011;42627;42.646;23.642;2023-07-22T00:00:58;8.65;;;2.63;;
56752;SDS011;42627;42.646;23.642;2023-07-22T00:02:59;5.57;;;3.00;;
56752;SDS011;42627;42.646;23.642;2023-07-22T00:05:00;4.85;;;3.10;;
56752;SDS011;42627;42.646;23.642;2023-07-22T00:07:01;6.93;;;3.35;;
56752;SDS011;42627;42.646;23.642;2023-07-22T00:09:02;8.02;;;3.58;;
56752;SDS011;42627;42.646;23.642;2023-07-22T00:11:04;6.45;;;3.00;;
56752;SDS011;42627;42.646;23.642;2023-07-22T00:13:05;6.40;;;2.97;;
56752;SDS011;42627;42.646;23.642;2023-07-22T00:15:07;5.63;;;3.03;;
56752;SDS011;42627;42.646;23.642;2023-07-22T00:17:11;11.48;;;3.35;;
56752;SDS011;42627;42.646;23.642;2023-07-22T00:19:13;6.85;;;2.75;;
56752;SDS011;42627;42.646;23.642;2023-07-22T00:21:14;6.22;;;3.05;;
56752;SDS011;42627;42.646;23.642;2023-07-22T00:23:16;5.63;;;2.90;;
56752;SDS011;42627;42.646;23.642;2023-07-22T00:25:17;10.85;;;3.08;;
56752;SDS011;42627;42.646;23.642;2023-07-22T00:27:18;6.00;;;2.95;;
56752;SDS011;42627;42.646;23.642;2023-07-22T00:29:19;7.80;;;3.25;;
56752;SDS011;42627;42.646;23.642;2023-07-22T00:31:20;7.35;;;3.45;;
56752;SDS011;42627;42.646;23.642;2023-07-22T00:33:21;7.03;;;3.47;;
56752;SDS011;42627;42.646;23.642;2023-07-22T00:35:23;8.48;;;3.30;;
56752;SDS011;42627;42.646;23.642;2023-07-22T00:37:24;5.68;;;2.70;;
56752;SDS011;42627;42.646;23.642;2023-07-22T00:39:25;5.43;;;3.22;;
56752;SDS011;42627;42.646;23.642;2023-07-22T00:41:26;5.40;;;3.13;;
56752;SDS011;42627;42.646;23.642;2023-07-22T00:43:29;4.90;;;2.60;;
56752;SDS011;42627;42.646;23.642;2023-07-22T00:45:29;4.60;;;2.63;;
56752;SDS011;42627;42.646;23.642;2023-07-22T00:47:31;4.95;;;2.90;;
56752;SDS011;42627;42.646;23.642;2023-07-22T00:49:33;5.15;;;2.80;;
56752;SDS011;42627;42.646;23.642;2023-07-22T00:51:35;5.40;;;3.17;;
56752;SDS011;42627;42.646;23.642;2023-07-22T00:53:36;6.82;;;3.20;;
56752;SDS011;42627;42.646;23.642;2023-07-22T00:55:37;8.68;;;3.72;;
56752;SDS011;42627;42.646;23.642;2023-07-22T00:57:40;5.57;;;2.83;;
56752;SDS011;42627;42.646;23.642;2023-07-22T00:59:43;4.47;;;2.65;;
56752;SDS011;42627;42.646;23.642;2023-07-22T01:01:47;9.82;;;3.50;;
56752;SDS011;42627;42.646;23.642;2023-07-22T01:03:48;5.78;;;3.08;;
56752;SDS011;42627;42.646;23.642;2023-07-22T01:05:49;7.07;;;3.20;;
56752;SDS011;42627;42.646;23.642;2023-07-22T01:07:51;7.13;;;2.80;;
56752;SDS011;42627;42.646;23.642;2023-07-22T01:09:55;5.90;;;3.20;;
56752;SDS011;42627;42.646;23.642;2023-07-22T01:11:56;5.93;;;3.00;;
56752;SDS011;42627;42.646;23.642;2023-07-22T01:13:57;6.93;;;3.47;;
56752;SDS011;42627;42.646;23.642;2023-07-22T01:15:59;7.00;;;3.22;;
56752;SDS011;42627;42.646;23.642;2023-07-22T01:18:00;5.95;;;3.10;;
56752;SDS011;42627;42.646;23.642;2023-07-22T01:20:03;7.65;;;3.60;;
56752;SDS011;42627;42.646;23.642;2023-07-22T01:22:05;6.20;;;3.20;;
56752;SDS011;42627;42.646;23.642;2023-07-22T01:24:09;7.15;;;3.15;;
56752;SDS011;42627;42.646;23.642;2023-07-22T01:26:10;5.07;;;3.13;;
56752;SDS011;42627;42.646;23.642;2023-07-22T01:28:12;7.20;;;3.72;;
56752;SDS011;42627;42.646;23.642;2023-07-22T01:30:13;6.72;;;4.45;;
56752;SDS011;42627;42.646;23.642;2023-07-22T01:32:14;5.20;;;3.05;;
56752;SDS011;42627;42.646;23.642;2023-07-22T01:34:15;9.07;;;3.83;;
56752;SDS011;42627;42.646;23.642;2023-07-22T01:36:17;6.35;;;3.38;;
56752;SDS011;42627;42.646;23.642;2023-07-22T01:38:18;6.45;;;3.47;;
56752;SDS011;42627;42.646;23.642;2023-07-22T01:40:19;8.07;;;3.17;;
56752;SDS011;42627;42.646;23.642;2023-07-22T01:42:20;5.07;;;2.90;;
56752;SDS011;42627;42.646;23.642;2023-07-22T01:44:21;5.20;;;3.30;;
56752;SDS011;42627;42.646;23.642;2023-07-22T01:46:23;8.27;;;4.10;;
56752;SDS011;42627;42.646;23.642;2023-07-22T01:48:24;16.40;;;4.03;;
56752;SDS011;42627;42.646;23.642;2023-07-22T01:50:25;16.27;;;4.60;;
56752;SDS011;42627;42.646;23.642;2023-07-22T01:52:26;18.33;;;4.30;;
56752;SDS011;42627;42.646;23.642;2023-07-22T01:54:27;6.53;;;3.25;;
56752;SDS011;42627;42.646;23.642;2023-07-22T01:56:28;7.75;;;3.00;;
56752;SDS011;42627;42.646;23.642;2023-07-22T01:58:29;7.75;;;3.38;;
56752;SDS011;42627;42.646;23.642;2023-07-22T02:00:30;6.60;;;3.67;;
56752;SDS011;42627;42.646;23.642;2023-07-22T02:02:31;8.40;;;3.53;;
56752;SDS011;42627;42.646;23.642;2023-07-22T02:04:32;7.18;;;3.45;;
56752;SDS011;42627;42.646;23.642;2023-07-22T02:06:33;12.45;;;3.40;;
56752;SDS011;42627;42.646;23.642;2023-07-22T02:08:34;7.30;;;4.03;;
56752;SDS011;42627;42.646;23.642;2023-07-22T02:10:36;7.47;;;3.83;;
56752;SDS011;42627;42.646;23.642;2023-07-22T02:12:37;9.75;;;3.83;;
56752;SDS011;42627;42.646;23.642;2023-07-22T02:14:39;6.50;;;3.80;;
56752;SDS011;42627;42.646;23.642;2023-07-22T02:16:40;8.98;;;3.42;;
56752;SDS011;42627;42.646;23.642;2023-07-22T02:18:41;6.68;;;3.33;;
56752;SDS011;42627;42.646;23.642;2023-07-22T02:20:42;8.63;;;3.33;;
56752;SDS011;42627;42.646;23.642;2023-07-22T02:22:43;5.05;;;3.00;;
56752;SDS011;42627;42.646;23.642;2023-07-22T02:24:44;7.32;;;3.42;;
56752;SDS011;42627;42.646;23.642;2023-07-22T02:26:45;7.00;;;3.53;;
56752;SDS011;42627;42.646;23.642;2023-07-22T02:28:46;6.50;;;3.40;;
56752;SDS011;42627;42.646;23.642;2023-07-22T02:30:48;6.22;;;3.78;;
56752;SDS011;42627;42.646;23.642;2023-07-22T02:32:50;8.50;;;3.80;;
56752;SDS011;42627;42.646;23.642;2023-07-22T02:34:51;5.25;;;3.15;;
56752;SDS011;42627;42.646;23.642;2023-07-22T02:36:52;6.57;;;3.45;;
56752;SDS011;42627;42.646;23.642;2023-07-22T02:38:53;7.03;;;3.58;;
56752;SDS011;42627;42.646;23.642;2023-07-22T02:40:54;7.63;;;3.58;;
56752;SDS011;42627;42.646;23.642;2023-07-22T02:42:55;7.93;;;3.53;;
56752;SDS011;42627;42.646;23.642;2023-07-22T02:44:56;6.65;;;3.80;;
56752;SDS011;42627;42.646;23.642;2023-07-22T02:46:57;6.65;;;3.17;;
56752;SDS011;42627;42.646;23.642;2023-07-22T02:48:58;8.38;;;3.88;;
56752;SDS011;42627;42.646;23.642;2023-07-22T02:51:05;6.75;;;3.95;;
56752;SDS011;42627;42.646;23.642;2023-07-22T02:53:07;6.88;;;3.50;;
56752;SDS011;42627;42.646;23.642;2023-07-22T02:55:09;13.23;;;3.35;;
56752;SDS011;42627;42.646;23.642;2023-07-22T02:59:14;8.38;;;4.28;;
56752;SDS011;42627;42.646;23.642;2023-07-22T03:01:15;8.32;;;3.75;;
56752;SDS011;42627;42.646;23.642;2023-07-22T03:03:16;8.23;;;4.05;;
56752;SDS011;42627;42.646;23.642;2023-07-22T03:05:19;8.77;;;3.30;;
56752;SDS011;42627;42.646;23.642;2023-07-22T03:07:21;7.43;;;3.83;;
56752;SDS011;42627;42.646;23.642;2023-07-22T03:09:22;6.32;;;3.25;;
56752;SDS011;42627;42.646;23.642;2023-07-22T03:11:23;6.03;;;3.75;;
56752;SDS011;42627;42.646;23.642;2023-07-22T03:13:25;8.85;;;3.72;;
56752;SDS011;42627;42.646;23.642;2023-07-22T03:15:29;7.10;;;3.70;;
56752;SDS011;42627;42.646;23.642;2023-07-22T03:17:30;5.93;;;3.58;;
56752;SDS011;42627;42.646;23.642;2023-07-22T03:19:31;6.70;;;3.97;;
56752;SDS011;42627;42.646;23.642;2023-07-22T03:21:32;9.48;;;3.85;;
56752;SDS011;42627;42.646;23.642;2023-07-22T03:23:33;5.80;;;3.65;;
56752;SDS011;42627;42.646;23.642;2023-07-22T03:25:34;7.80;;;4.07;;
56752;SDS011;42627;42.646;23.642;2023-07-22T03:27:36;6.65;;;3.80;;
56752;SDS011;42627;42.646;23.642;2023-07-22T03:29:37;9.27;;;3.60;;
56752;SDS011;42627;42.646;23.642;2023-07-22T03:31:38;6.38;;;3.85;;
56752;SDS011;42627;42.646;23.642;2023-07-22T03:33:39;7.68;;;3.70;;
56752;SDS011;42627;42.646;23.642;2023-07-22T03:35:45;8.70;;;3.80;;
56752;SDS011;42627;42.646;23.642;2023-07-22T03:37:47;13.15;;;4.88;;
56752;SDS011;42627;42.646;23.642;2023-07-22T03:39:48;6.95;;;3.83;;
56752;SDS011;42627;42.646;23.642;2023-07-22T03:41:50;6.82;;;3.85;;
56752;SDS011;42627;42.646;23.642;2023-07-22T03:43:51;6.45;;;3.50;;
56752;SDS011;42627;42.646;23.642;2023-07-22T03:45:52;6.07;;;3.75;;
56752;SDS011;42627;42.646;23.642;2023-07-22T03:47:56;5.32;;;3.35;;
56752;SDS011;42627;42.646;23.642;2023-07-22T03:49:58;5.88;;;3.13;;
56752;SDS011;42627;42.646;23.642;2023-07-22T03:51:59;7.15;;;3.63;;
56752;SDS011;42627;42.646;23.642;2023-07-22T03:54:00;7.30;;;4.05;;
56752;SDS011;42627;42.646;23.642;2023-07-22T03:56:01;5.30;;;3.13;;
56752;SDS011;42627;42.646;23.642;2023-07-22T03:58:02;6.25;;;3.80;;
56752;SDS011;42627;42.646;23.642;2023-07-22T04:00:03;7.10;;;3.70;;
56752;SDS011;42627;42.646;23.642;2023-07-22T04:02:05;6.32;;;3.40;;
56752;SDS011;42627;42.646;23.642;2023-07-22T04:04:06;5.75;;;3.53;;
56752;SDS011;42627;42.646;23.642;2023-07-22T04:06:07;6.75;;;4.40;;
56752;SDS011;42627;42.646;23.642;2023-07-22T04:08:08;8.25;;;3.70;;
56752;SDS011;42627;42.646;23.642;2023-07-22T04:10:09;8.55;;;4.53;;
56752;SDS011;42627;42.646;23.642;2023-07-22T04:12:10;5.88;;;3.63;;
56752;SDS011;42627;42.646;23.642;2023-07-22T04:16:36;8.18;;;4.22;;
56752;SDS011;42627;42.646;23.642;2023-07-22T04:18:40;6.45;;;3.97;;
56752;SDS011;42627;42.646;23.642;2023-07-22T04:20:41;7.87;;;4.30;;
56752;SDS011;42627;42.646;23.642;2023-07-22T04:22:42;8.13;;;4.07;;
56752;SDS011;42627;42.646;23.642;2023-07-22T04:24:43;11.07;;;4.60;;
56752;SDS011;42627;42.646;23.642;2023-07-22T04:26:44;9.10;;;4.63;;
56752;SDS011;42627;42.646;23.642;2023-07-22T04:36:20;6.20;;;3.38;;
56752;SDS011;42627;42.646;23.642;2023-07-22T04:38:21;8.95;;;3.85;;
56752;SDS011;42627;42.646;23.642;2023-07-22T04:40:22;5.95;;;3.47;;
56752;SDS011;42627;42.646;23.642;2023-07-22T04:50:03;6.95;;;3.78;;
56752;SDS011;42627;42.646;23.642;2023-07-22T04:52:04;5.93;;;3.42;;
56752;SDS011;42627;42.646;23.642;2023-07-22T04:54:05;6.32;;;3.40;;
56752;SDS011;42627;42.646;23.642;2023-07-22T04:56:06;7.22;;;4.22;;
56752;SDS011;42627;42.646;23.642;2023-07-22T04:58:07;9.27;;;3.72;;
56752;SDS011;42627;42.646;23.642;2023-07-22T05:00:11;8.35;;;3.88;;
56752;SDS011;42627;42.646;23.642;2023-07-22T05:04:25;10.27;;;3.58;;
56752;SDS011;42627;42.646;23.642;2023-07-22T05:06:27;7.28;;;3.88;;
56752;SDS011;42627;42.646;23.642;2023-07-22T05:08:29;6.90;;;3.85;;
56752;SDS011;42627;42.646;23.642;2023-07-22T05:10:30;6.18;;;3.50;;
56752;SDS011;42627;42.646;23.642;2023-07-22T05:12:31;8.73;;;4.38;;
56752;SDS011;42627;42.646;23.642;2023-07-22T05:14:33;8.05;;;3.85;;
56752;SDS011;42627;42.646;23.642;2023-07-22T05:16:37;6.80;;;3.47;;
56752;SDS011;42627;42.646;23.642;2023-07-22T05:24:02;8.98;;;3.90;;
56752;SDS011;42627;42.646;23.642;2023-07-22T05:26:03;8.38;;;3.80;;
56752;SDS011;42627;42.646;23.642;2023-07-22T05:28:05;5.97;;;3.70;;
56752;SDS011;42627;42.646;23.642;2023-07-22T05:30:07;9.40;;;3.75;;
56752;SDS011;42627;42.646;23.642;2023-07-22T05:32:08;7.15;;;4.07;;
56752;SDS011;42627;42.646;23.642;2023-07-22T05:34:12;6.67;;;4.27;;
56752;SDS011;42627;42.646;23.642;2023-07-22T05:36:16;9.90;;;3.97;;
56752;SDS011;42627;42.646;23.642;2023-07-22T05:42:39;9.85;;;3.60;;
56752;SDS011;42627;42.646;23.642;2023-07-22T05:44:50;8.48;;;4.10;;
56752;SDS011;42627;42.646;23.642;2023-07-22T05:46:52;7.93;;;3.90;;
56752;SDS011;42627;42.646;23.642;2023-07-22T05:48:53;5.85;;;3.70;;
56752;SDS011;42627;42.646;23.642;2023-07-22T05:50:55;8.02;;;3.88;;
56752;SDS011;42627;42.646;23.642;2023-07-22T06:00:38;7.05;;;3.22;;
56752;SDS011;42627;42.646;23.642;2023-07-22T06:02:39;8.23;;;4.10;;
56752;SDS011;42627;42.646;23.642;2023-07-22T06:04:41;6.65;;;3.50;;
56752;SDS011;42627;42.646;23.642;2023-07-22T06:06:42;9.38;;;3.90;;
56752;SDS011;42627;42.646;23.642;2023-07-22T06:08:43;7.00;;;3.50;;
56752;SDS011;42627;42.646;23.642;2023-07-22T06:10:44;9.63;;;3.67;;
56752;SDS011;42627;42.646;23.642;2023-07-22T06:17:07;7.13;;;3.65;;
56752;SDS011;42627;42.646;23.642;2023-07-22T06:19:09;7.20;;;3.95;;
56752;SDS011;42627;42.646;23.642;2023-07-22T06:21:10;4.78;;;3.00;;
56752;SDS011;42627;42.646;23.642;2023-07-22T06:23:11;6.75;;;3.85;;
56752;SDS011;42627;42.646;23.642;2023-07-22T06:25:13;8.25;;;3.85;;
56752;SDS011;42627;42.646;23.642;2023-07-22T06:27:14;5.45;;;3.33;;
56752;SDS011;42627;42.646;23.642;2023-07-22T06:34:14;8.50;;;3.80;;
56752;SDS011;42627;42.646;23.642;2023-07-22T06:36:16;6.35;;;3.45;;
56752;SDS011;42627;42.646;23.642;2023-07-22T06:38:17;11.60;;;3.63;;
56752;SDS011;42627;42.646;23.642;2023-07-22T06:40:19;6.03;;;3.83;;
56752;SDS011;42627;42.646;23.642;2023-07-22T06:42:20;7.13;;;3.55;;
56752;SDS011;42627;42.646;23.642;2023-07-22T06:44:22;6.25;;;3.72;;
56752;SDS011;42627;42.646;23.642;2023-07-22T06:46:23;6.50;;;3.90;;
56752;SDS011;42627;42.646;23.642;2023-07-22T06:50:47;6.57;;;3.47;;
56752;SDS011;42627;42.646;23.642;2023-07-22T06:52:49;9.18;;;3.85;;
56752;SDS011;42627;42.646;23.642;2023-07-22T06:54:50;7.10;;;4.05;;
56752;SDS011;42627;42.646;23.642;2023-07-22T06:56:52;6.22;;;3.70;;
56752;SDS011;42627;42.646;23.642;2023-07-22T07:03:58;6.88;;;4.25;;
56752;SDS011;42627;42.646;23.642;2023-07-22T07:05:59;7.15;;;3.63;;
56752;SDS011;42627;42.646;23.642;2023-07-22T07:08:01;7.88;;;3.80;;
56752;SDS011;42627;42.646;23.642;2023-07-22T07:21:14;7.70;;;3.90;;
56752;SDS011;42627;42.646;23.642;2023-07-22T07:53:47;13.48;;;4.47;;
56752;SDS011;42627;42.646;23.642;2023-07-22T07:55:48;6.47;;;4.30;;
56752;SDS011;42627;42.646;23.642;2023-07-22T07:57:49;9.52;;;4.80;;
56752;SDS011;42627;42.646;23.642;2023-07-22T07:59:50;7.97;;;4.05;;
56752;SDS011;42627;42.646;23.642;2023-07-22T08:01:51;8.32;;;3.40;;
56752;SDS011;42627;42.646;23.642;2023-07-22T08:03:53;8.93;;;4.10;;
56752;SDS011;42627;42.646;23.642;2023-07-22T08:05:54;7.93;;;4.10;;
56752;SDS011;42627;42.646;23.642;2023-07-22T08:13:18;10.55;;;3.83;;
56752;SDS011;42627;42.646;23.642;2023-07-22T08:15:19;11.00;;;4.82;;
56752;SDS011;42627;42.646;23.642;2023-07-22T08:17:20;8.10;;;3.80;;
56752;SDS011;42627;42.646;23.642;2023-07-22T08:19:21;7.00;;;3.75;;
56752;SDS011;42627;42.646;23.642;2023-07-22T08:21:22;8.00;;;4.03;;
56752;SDS011;42627;42.646;23.642;2023-07-22T08:23:23;7.10;;;4.38;;
56752;SDS011;42627;42.646;23.642;2023-07-22T08:25:24;10.20;;;4.75;;
56752;SDS011;42627;42.646;23.642;2023-07-22T08:29:48;11.30;;;4.38;;
56752;SDS011;42627;42.646;23.642;2023-07-22T08:31:49;9.10;;;4.05;;
56752;SDS011;42627;42.646;23.642;2023-07-22T08:33:50;7.47;;;3.90;;
56752;SDS011;42627;42.646;23.642;2023-07-22T08:35:51;9.75;;;4.18;;
56752;SDS011;42627;42.646;23.642;2023-07-22T08:37:52;9.27;;;5.22;;
56752;SDS011;42627;42.646;23.642;2023-07-22T08:39:54;8.35;;;3.85;;
56752;SDS011;42627;42.646;23.642;2023-07-22T08:44:20;7.97;;;4.18;;
56752;SDS011;42627;42.646;23.642;2023-07-22T08:46:22;5.70;;;3.40;;
56752;SDS011;42627;42.646;23.642;2023-07-22T08:48:25;9.60;;;4.35;;
56752;SDS011;42627;42.646;23.642;2023-07-22T08:50:29;9.32;;;4.18;;
56752;SDS011;42627;42.646;23.642;2023-07-22T08:52:30;7.28;;;4.03;;
56752;SDS011;42627;42.646;23.642;2023-07-22T08:54:31;7.78;;;3.88;;
56752;SDS011;42627;42.646;23.642;2023-07-22T09:04:16;8.63;;;4.60;;
56752;SDS011;42627;42.646;23.642;2023-07-22T09:06:19;9.55;;;3.80;;
56752;SDS011;42627;42.646;23.642;2023-07-22T09:08:20;12.25;;;4.50;;
56752;SDS011;42627;42.646;23.642;2023-07-22T09:10:22;7.72;;;4.28;;
56752;SDS011;42627;42.646;23.642;2023-07-22T09:12:23;10.15;;;4.15;;
56752;SDS011;42627;42.646;23.642;2023-07-22T09:14:25;9.18;;;3.60;;
56752;SDS011;42627;42.646;23.642;2023-07-22T09:53:30;8.38;;;3.90;;
56752;SDS011;42627;42.646;23.642;2023-07-22T09:55:31;11.20;;;3.95;;
56752;SDS011;42627;42.646;23.642;2023-07-22T09:57:32;6.50;;;3.83;;
56752;SDS011;42627;42.646;23.642;2023-07-22T09:59:34;9.40;;;3.50;;
56752;SDS011;42627;42.646;23.642;2023-07-22T10:01:37;6.45;;;3.40;;
56752;SDS011;42627;42.646;23.642;2023-07-22T10:03:39;7.18;;;4.10;;
56752;SDS011;42627;42.646;23.642;2023-07-22T10:05:40;7.70;;;3.83;;
56752;SDS011;42627;42.646;23.642;2023-07-22T10:12:46;8.00;;;3.80;;
56752;SDS011;42627;42.646;23.642;2023-07-22T10:14:47;13.40;;;4.72;;
56752;SDS011;42627;42.646;23.642;2023-07-22T10:16:49;8.10;;;4.13;;
56752;SDS011;42627;42.646;23.642;2023-07-22T10:21:17;9.70;;;3.75;;
56752;SDS011;42627;42.646;23.642;2023-07-22T10:23:19;7.88;;;3.60;;
56752;SDS011;42627;42.646;23.642;2023-07-22T10:25:21;8.95;;;4.47;;
56752;SDS011;42627;42.646;23.642;2023-07-22T10:27:22;10.13;;;4.00;;
56752;SDS011;42627;42.646;23.642;2023-07-22T10:29:24;7.82;;;3.92;;
56752;SDS011;42627;42.646;23.642;2023-07-22T10:31:29;8.68;;;3.63;;
56752;SDS011;42627;42.646;23.642;2023-07-22T10:37:32;6.68;;;4.15;;
56752;SDS011;42627;42.646;23.642;2023-07-22T10:39:33;7.88;;;3.58;;
56752;SDS011;42627;42.646;23.642;2023-07-22T10:45:58;15.23;;;4.57;;
56752;SDS011;42627;42.646;23.642;2023-07-22T10:48:21;12.20;;;4.13;;
56752;SDS011;42627;42.646;23.642;2023-07-22T10:50:21;8.65;;;3.53;;
56752;SDS011;42627;42.646;23.642;2023-07-22T10:52:38;11.00;;;4.13;;
56752;SDS011;42627;42.646;23.642;2023-07-22T10:54:39;8.77;;;3.72;;
56752;SDS011;42627;42.646;23.642;2023-07-22T11:17:29;11.18;;;4.10;;
56752;SDS011;42627;42.646;23.642;2023-07-22T11:19:31;6.75;;;3.65;;
56752;SDS011;42627;42.646;23.642;2023-07-22T11:21:33;11.15;;;4.30;;
56752;SDS011;42627;42.646;23.642;2023-07-22T11:23:34;11.25;;;4.13;;
56752;SDS011;42627;42.646;23.642;2023-07-22T11:25:35;6.85;;;3.83;;
56752;SDS011;42627;42.646;23.642;2023-07-22T11:27:36;11.88;;;4.43;;
56752;SDS011;42627;42.646;23.642;2023-07-22T11:29:37;9.38;;;3.92;;
56752;SDS011;42627;42.646;23.642;2023-07-22T11:36:57;11.90;;;4.53;;
56752;SDS011;42627;42.646;23.642;2023-07-22T11:39:02;9.73;;;3.55;;
56752;SDS011;42627;42.646;23.642;2023-07-22T11:41:04;8.65;;;3.58;;
56752;SDS011;42627;42.646;23.642;2023-07-22T11:43:05;11.07;;;3.58;;
56752;SDS011;42627;42.646;23.642;2023-07-22T11:45:06;10.05;;;3.15;;
56752;SDS011;42627;42.646;23.642;2023-07-22T12:23:35;15.88;;;4.20;;
56752;SDS011;42627;42.646;23.642;2023-07-22T12:25:36;10.50;;;3.40;;
56752;SDS011;42627;42.646;23.642;2023-07-22T12:27:39;13.13;;;3.47;;
56752;SDS011;42627;42.646;23.642;2023-07-22T12:29:41;11.93;;;3.60;;
56752;SDS011;42627;42.646;23.642;2023-07-22T12:34:15;12.05;;;3.88;;
56752;SDS011;42627;42.646;23.642;2023-07-22T12:36:17;12.90;;;3.78;;
56752;SDS011;42627;42.646;23.642;2023-07-22T12:38:18;19.90;;;4.10;;
56752;SDS011;42627;42.646;23.642;2023-07-22T12:40:19;12.50;;;2.78;;
56752;SDS011;42627;42.646;23.642;2023-07-22T12:42:20;11.18;;;3.20;;
56752;SDS011;42627;42.646;23.642;2023-07-22T12:44:21;10.05;;;2.90;;
56752;SDS011;42627;42.646;23.642;2023-07-22T13:54:53;11.00;;;3.00;;
56752;SDS011;42627;42.646;23.642;2023-07-22T13:56:54;11.85;;;3.03;;
56752;SDS011;42627;42.646;23.642;2023-07-22T13:58:55;8.80;;;2.83;;
56752;SDS011;42627;42.646;23.642;2023-07-22T14:00:58;6.90;;;2.67;;
56752;SDS011;42627;42.646;23.642;2023-07-22T14:12:09;8.98;;;2.72;;
56752;SDS011;42627;42.646;23.642;2023-07-22T14:14:11;13.23;;;2.90;;
56752;SDS011;42627;42.646;23.642;2023-07-22T14:16:12;11.80;;;3.15;;
56752;SDS011;42627;42.646;23.642;2023-07-22T14:18:13;10.95;;;3.60;;
56752;SDS011;42627;42.646;23.642;2023-07-22T14:57:50;11.90;;;2.95;;
56752;SDS011;42627;42.646;23.642;2023-07-22T14:59:51;8.82;;;2.60;;
56752;SDS011;42627;42.646;23.642;2023-07-22T15:01:52;7.55;;;2.50;;
56752;SDS011;42627;42.646;23.642;2023-07-22T15:03:54;8.57;;;2.38;;
56752;SDS011;42627;42.646;23.642;2023-07-22T15:05:55;11.35;;;3.65;;
56752;SDS011;42627;42.646;23.642;2023-07-22T15:07:56;15.70;;;3.05;;
56752;SDS011;42627;42.646;23.642;2023-07-22T15:12:08;8.15;;;2.80;;
56752;SDS011;42627;42.646;23.642;2023-07-22T15:14:09;6.55;;;2.50;;
56752;SDS011;42627;42.646;23.642;2023-07-22T15:16:10;6.70;;;2.67;;
56752;SDS011;42627;42.646;23.642;2023-07-22T15:18:11;14.07;;;2.72;;
56752;SDS011;42627;42.646;23.642;2023-07-22T15:20:12;8.57;;;3.25;;
56752;SDS011;42627;42.646;23.642;2023-07-22T15:22:13;8.05;;;2.80;;
56752;SDS011;42627;42.646;23.642;2023-07-22T15:47:04;7.65;;;2.65;;
56752;SDS011;42627;42.646;23.642;2023-07-22T15:49:05;7.43;;;2.95;;
56752;SDS011;42627;42.646;23.642;2023-07-22T15:51:06;8.85;;;2.47;;
56752;SDS011;42627;42.646;23.642;2023-07-22T15:53:07;7.25;;;2.70;;
56752;SDS011;42627;42.646;23.642;2023-07-22T15:55:08;6.55;;;3.03;;
56752;SDS011;42627;42.646;23.642;2023-07-22T15:57:09;12.45;;;3.08;;
56752;SDS011;42627;42.646;23.642;2023-07-22T16:06:30;7.13;;;2.80;;
56752;SDS011;42627;42.646;23.642;2023-07-22T16:08:31;4.63;;;2.13;;
56752;SDS011;42627;42.646;23.642;2023-07-22T16:10:32;8.13;;;2.25;;
56752;SDS011;42627;42.646;23.642;2023-07-22T16:12:33;8.73;;;2.63;;
56752;SDS011;42627;42.646;23.642;2023-07-22T16:17:05;12.05;;;2.40;;
56752;SDS011;42627;42.646;23.642;2023-07-22T16:19:07;5.90;;;2.10;;
56752;SDS011;42627;42.646;23.642;2023-07-22T16:21:08;6.25;;;2.47;;
56752;SDS011;42627;42.646;23.642;2023-07-22T16:23:09;12.25;;;2.97;;
56752;SDS011;42627;42.646;23.642;2023-07-22T16:25:10;6.80;;;2.50;;
56752;SDS011;42627;42.646;23.642;2023-07-22T16:27:11;7.45;;;2.63;;
56752;SDS011;42627;42.646;23.642;2023-07-22T16:31:39;8.00;;;2.50;;
56752;SDS011;42627;42.646;23.642;2023-07-22T16:46:45;9.02;;;2.45;;
56752;SDS011;42627;42.646;23.642;2023-07-22T16:48:46;6.82;;;2.20;;
56752;SDS011;42627;42.646;23.642;2023-07-22T16:50:48;13.63;;;2.90;;
56752;SDS011;42627;42.646;23.642;2023-07-22T16:52:49;8.38;;;2.90;;
56752;SDS011;42627;42.646;23.642;2023-07-22T16:54:50;8.43;;;3.17;;
56752;SDS011;42627;42.646;23.642;2023-07-22T16:56:51;12.90;;;3.20;;
56752;SDS011;42627;42.646;23.642;2023-07-22T17:01:17;9.55;;;2.78;;
56752;SDS011;42627;42.646;23.642;2023-07-22T17:03:18;7.53;;;2.75;;
56752;SDS011;42627;42.646;23.642;2023-07-22T17:05:19;7.63;;;2.50;;
56752;SDS011;42627;42.646;23.642;2023-07-22T17:07:20;8.23;;;2.80;;
56752;SDS011;42627;42.646;23.642;2023-07-22T17:47:21;8.75;;;2.15;;
56752;SDS011;42627;42.646;23.642;2023-07-22T17:49:22;11.75;;;1.98;;
56752;SDS011;42627;42.646;23.642;2023-07-22T17:51:23;7.65;;;2.05;;
56752;SDS011;42627;42.646;23.642;2023-07-22T17:53:24;6.25;;;2.05;;
56752;SDS011;42627;42.646;23.642;2023-07-22T17:55:25;4.32;;;1.55;;
56752;SDS011;42627;42.646;23.642;2023-07-22T17:57:26;7.20;;;2.40;;
56752;SDS011;42627;42.646;23.642;2023-07-22T18:01:53;6.40;;;2.08;;
56752;SDS011;42627;42.646;23.642;2023-07-22T18:03:54;7.90;;;2.10;;
56752;SDS011;42627;42.646;23.642;2023-07-22T18:05:55;9.50;;;2.50;;
56752;SDS011;42627;42.646;23.642;2023-07-22T18:07:56;5.78;;;2.28;;
56752;SDS011;42627;42.646;23.642;2023-07-22T18:23:04;8.38;;;2.63;;
56752;SDS011;42627;42.646;23.642;2023-07-22T18:25:08;8.00;;;2.22;;
56752;SDS011;42627;42.646;23.642;2023-07-22T18:27:09;5.63;;;2.22;;
56752;SDS011;42627;42.646;23.642;2023-07-22T18:46:37;7.68;;;2.67;;
56752;SDS011;42627;42.646;23.642;2023-07-22T18:48:38;5.10;;;1.88;;
56752;SDS011;42627;42.646;23.642;2023-07-22T18:50:39;4.40;;;2.00;;
56752;SDS011;42627;42.646;23.642;2023-07-22T18:52:40;8.52;;;2.22;;
56752;SDS011;42627;42.646;23.642;2023-07-22T18:54:41;5.22;;;1.98;;
56752;SDS011;42627;42.646;23.642;2023-07-22T18:56:43;15.02;;;2.25;;
56752;SDS011;42627;42.646;23.642;2023-07-22T19:00:55;7.00;;;4.75;;
56752;SDS011;42627;42.646;23.642;2023-07-22T19:02:56;7.15;;;3.38;;
56752;SDS011;42627;42.646;23.642;2023-07-22T19:04:57;5.50;;;2.20;;
56752;SDS011;42627;42.646;23.642;2023-07-22T19:06:58;6.53;;;1.92;;
56752;SDS011;42627;42.646;23.642;2023-07-22T19:08:59;7.50;;;3.00;;
56752;SDS011;42627;42.646;23.642;2023-07-22T19:11:00;7.88;;;2.50;;
56752;SDS011;42627;42.646;23.642;2023-07-22T19:13:05;4.07;;;1.92;;
56752;SDS011;42627;42.646;23.642;2023-07-22T19:20:28;5.75;;;2.00;;
56752;SDS011;42627;42.646;23.642;2023-07-22T19:29:04;8.55;;;3.85;;
56752;SDS011;42627;42.646;23.642;2023-07-22T19:31:05;9.73;;;4.13;;
56752;SDS011;42627;42.646;23.642;2023-07-22T19:33:06;9.52;;;3.30;;
56752;SDS011;42627;42.646;23.642;2023-07-22T19:37:32;7.50;;;3.17;;
56752;SDS011;42627;42.646;23.642;2023-07-22T19:39:33;8.68;;;3.78;;
56752;SDS011;42627;42.646;23.642;2023-07-22T19:41:34;8.45;;;2.75;;
56752;SDS011;42627;42.646;23.642;2023-07-22T19:43:36;7.32;;;2.42;;
56752;SDS011;42627;42.646;23.642;2023-07-22T19:49:58;7.25;;;3.65;;
56752;SDS011;42627;42.646;23.642;2023-07-22T19:52:05;9.05;;;2.70;;
56752;SDS011;42627;42.646;23.642;2023-07-22T19:54:17;7.93;;;2.75;;
56752;SDS011;42627;42.646;23.642;2023-07-22T20:35:32;9.85;;;3.42;;
56752;SDS011;42627;42.646;23.642;2023-07-22T20:37:33;6.78;;;2.90;;
56752;SDS011;42627;42.646;23.642;2023-07-22T20:39:34;11.30;;;3.17;;
56752;SDS011;42627;42.646;23.642;2023-07-22T20:44:02;9.43;;;2.92;;
56752;SDS011;42627;42.646;23.642;2023-07-22T20:46:03;8.73;;;3.97;;
56752;SDS011;42627;42.646;23.642;2023-07-22T20:50:15;9.45;;;4.43;;
56752;SDS011;42627;42.646;23.642;2023-07-22T20:52:16;8.05;;;3.33;;
56752;SDS011;42627;42.646;23.642;2023-07-22T20:54:17;7.13;;;3.72;;
56752;SDS011;42627;42.646;23.642;2023-07-22T20:56:18;9.48;;;3.47;;
56752;SDS011;42627;42.646;23.642;2023-07-22T20:58:19;12.10;;;4.88;;